sensor_id;sensor_type;location;lat;lon;timestamp;P1;durP1;ratioP1;P2;durP2;ratioP2
12038;SDS011;6080;48.818;9.526;2023-02-13T00:01:42;26.83;;;20.43;;
12038;SDS011;6080;48.818;9.526;2023-02-13T00:04:08;29.07;;;26.00;;
12038;SDS011;6080;48.818;9.526;2023-02-13T00:06:35;36.13;;;32.30;;
12038;SDS011;6080;48.818;9.526;2023-02-13T00:09:01;34.33;;;30.63;;
12038;SDS011;6080;48.818;9.526;2023-02-13T00:11:27;42.53;;;38.70;;
12038;SDS011;6080;48.818;9.526;2023-02-13T00:13:53;39.63;;;35.83;;
12038;SDS011;6080;48.818;9.526;2023-02-13T00:16:19;33.30;;;30.03;;
12038;SDS011;6080;48.818;9.526;2023-02-13T00:18:44;34.13;;;27.93;;
12038;SDS011;6080;48.818;9.526;2023-02-13T00:21:11;32.50;;;27.67;;
12038;SDS011;6080;48.818;9.526;2023-02-13T00:23:38;33.67;;;29.37;;
12038;SDS011;6080;48.818;9.526;2023-02-13T00:26:05;30.47;;;24.83;;
12038;SDS011;6080;48.818;9.526;2023-02-13T00:28:33;25.83;;;18.43;;
12038;SDS011;6080;48.818;9.526;2023-02-13T00:31:06;28.07;;;18.77;;
12038;SDS011;6080;48.818;9.526;2023-02-13T00:33:33;25.63;;;19.20;;
12038;SDS011;6080;48.818;9.526;2023-02-13T00:38:29;32.13;;;28.53;;
12038;SDS011;6080;48.818;9.526;2023-02-13T00:40:55;28.73;;;25.07;;
12038;SDS011;6080;48.818;9.526;2023-02-13T00:43:21;30.57;;;27.27;;
12038;SDS011;6080;48.818;9.526;2023-02-13T00:45:47;33.63;;;30.50;;
12038;SDS011;6080;48.818;9.526;2023-02-13T00:48:13;31.47;;;28.47;;
12038;SDS011;6080;48.818;9.526;2023-02-13T00:50:38;33.27;;;29.10;;
12038;SDS011;6080;48.818;9.526;2023-02-13T00:53:05;31.87;;;28.77;;
12038;SDS011;6080;48.818;9.526;2023-02-13T00:55:31;36.47;;;33.33;;
12038;SDS011;6080;48.818;9.526;2023-02-13T00:57:58;22.90;;;16.87;;
12038;SDS011;6080;48.818;9.526;2023-02-13T01:00:23;20.73;;;16.77;;
12038;SDS011;6080;48.818;9.526;2023-02-13T01:02:49;24.27;;;17.47;;
12038;SDS011;6080;48.818;9.526;2023-02-13T01:05:15;22.83;;;16.93;;
12038;SDS011;6080;48.818;9.526;2023-02-13T01:07:41;23.87;;;17.30;;
12038;SDS011;6080;48.818;9.526;2023-02-13T01:10:06;27.77;;;22.87;;
12038;SDS011;6080;48.818;9.526;2023-02-13T01:12:32;28.87;;;25.87;;
12038;SDS011;6080;48.818;9.526;2023-02-13T01:14:58;27.00;;;21.93;;
12038;SDS011;6080;48.818;9.526;2023-02-13T01:17:24;33.00;;;25.57;;
12038;SDS011;6080;48.818;9.526;2023-02-13T01:19:50;34.93;;;31.50;;
12038;SDS011;6080;48.818;9.526;2023-02-13T01:22:15;33.93;;;30.60;;
12038;SDS011;6080;48.818;9.526;2023-02-13T01:24:41;33.97;;;30.60;;
12038;SDS011;6080;48.818;9.526;2023-02-13T01:27:07;34.27;;;30.60;;
12038;SDS011;6080;48.818;9.526;2023-02-13T01:29:33;35.03;;;31.60;;
12038;SDS011;6080;48.818;9.526;2023-02-13T01:31:58;34.63;;;31.33;;
12038;SDS011;6080;48.818;9.526;2023-02-13T01:34:26;34.17;;;30.90;;
12038;SDS011;6080;48.818;9.526;2023-02-13T01:36:52;36.73;;;33.30;;
12038;SDS011;6080;48.818;9.526;2023-02-13T01:39:17;33.07;;;30.07;;
12038;SDS011;6080;48.818;9.526;2023-02-13T01:41:43;35.00;;;31.47;;
12038;SDS011;6080;48.818;9.526;2023-02-13T01:47:10;34.40;;;29.97;;
12038;SDS011;6080;48.818;9.526;2023-02-13T01:49:39;28.30;;;25.63;;
12038;SDS011;6080;48.818;9.526;2023-02-13T01:52:06;33.83;;;30.50;;
12038;SDS011;6080;48.818;9.526;2023-02-13T01:54:34;29.33;;;26.30;;
12038;SDS011;6080;48.818;9.526;2023-02-13T01:57:02;31.33;;;24.27;;
12038;SDS011;6080;48.818;9.526;2023-02-13T01:59:57;24.17;;;21.70;;
12038;SDS011;6080;48.818;9.526;2023-02-13T02:02:27;34.80;;;31.40;;
12038;SDS011;6080;48.818;9.526;2023-02-13T02:04:55;40.63;;;37.13;;
12038;SDS011;6080;48.818;9.526;2023-02-13T02:07:24;43.80;;;40.03;;
12038;SDS011;6080;48.818;9.526;2023-02-13T02:09:54;22.40;;;19.90;;
12038;SDS011;6080;48.818;9.526;2023-02-13T02:12:28;32.50;;;28.27;;
12038;SDS011;6080;48.818;9.526;2023-02-13T02:15:00;34.93;;;31.23;;
12038;SDS011;6080;48.818;9.526;2023-02-13T02:17:27;37.77;;;33.97;;
12038;SDS011;6080;48.818;9.526;2023-02-13T02:33:15;30.60;;;27.53;;
12038;SDS011;6080;48.818;9.526;2023-02-13T02:36:07;34.40;;;30.90;;
12038;SDS011;6080;48.818;9.526;2023-02-13T02:44:46;39.97;;;36.27;;
12038;SDS011;6080;48.818;9.526;2023-02-13T02:50:31;33.50;;;29.53;;
12038;SDS011;6080;48.818;9.526;2023-02-13T02:56:17;28.80;;;24.57;;
12038;SDS011;6080;48.818;9.526;2023-02-13T02:59:00;28.37;;;24.90;;
12038;SDS011;6080;48.818;9.526;2023-02-13T03:01:48;30.93;;;27.77;;
12038;SDS011;6080;48.818;9.526;2023-02-13T03:04:37;28.70;;;25.97;;
12038;SDS011;6080;48.818;9.526;2023-02-13T03:07:26;27.97;;;22.83;;
12038;SDS011;6080;48.818;9.526;2023-02-13T03:09:56;27.67;;;20.97;;
12038;SDS011;6080;48.818;9.526;2023-02-13T03:12:48;21.57;;;17.07;;
12038;SDS011;6080;48.818;9.526;2023-02-13T03:15:38;21.60;;;18.83;;
12038;SDS011;6080;48.818;9.526;2023-02-13T03:18:27;21.97;;;17.73;;
12038;SDS011;6080;48.818;9.526;2023-02-13T03:24:37;25.30;;;22.43;;
12038;SDS011;6080;48.818;9.526;2023-02-13T03:41:29;28.23;;;21.27;;
12038;SDS011;6080;48.818;9.526;2023-02-13T03:44:13;26.67;;;22.43;;
12038;SDS011;6080;48.818;9.526;2023-02-13T03:46:51;28.53;;;25.87;;
12038;SDS011;6080;48.818;9.526;2023-02-13T03:49:20;40.27;;;36.97;;
12038;SDS011;6080;48.818;9.526;2023-02-13T03:55:00;27.93;;;20.43;;
12038;SDS011;6080;48.818;9.526;2023-02-13T03:57:51;28.47;;;22.30;;
12038;SDS011;6080;48.818;9.526;2023-02-13T04:00:42;24.30;;;20.97;;
12038;SDS011;6080;48.818;9.526;2023-02-13T04:03:13;27.13;;;19.17;;
12038;SDS011;6080;48.818;9.526;2023-02-13T04:05:47;28.73;;;18.03;;
12038;SDS011;6080;48.818;9.526;2023-02-13T04:08:15;25.53;;;16.87;;
12038;SDS011;6080;48.818;9.526;2023-02-13T04:11:25;27.80;;;18.53;;
12038;SDS011;6080;48.818;9.526;2023-02-13T04:18:56;29.97;;;18.97;;
12038;SDS011;6080;48.818;9.526;2023-02-13T04:21:24;29.30;;;18.93;;
12038;SDS011;6080;48.818;9.526;2023-02-13T04:23:49;45.47;;;19.93;;
12038;SDS011;6080;48.818;9.526;2023-02-13T04:26:16;46.73;;;24.53;;
12038;SDS011;6080;48.818;9.526;2023-02-13T04:28:45;62.80;;;26.93;;
12038;SDS011;6080;48.818;9.526;2023-02-13T04:31:11;55.30;;;26.20;;
12038;SDS011;6080;48.818;9.526;2023-02-13T04:33:37;45.63;;;25.60;;
12038;SDS011;6080;48.818;9.526;2023-02-13T04:36:03;49.33;;;35.13;;
12038;SDS011;6080;48.818;9.526;2023-02-13T04:38:29;57.80;;;44.10;;
12038;SDS011;6080;48.818;9.526;2023-02-13T04:40:54;51.53;;;45.33;;
12038;SDS011;6080;48.818;9.526;2023-02-13T04:43:20;106.50;;;64.40;;
12038;SDS011;6080;48.818;9.526;2023-02-13T04:45:47;67.63;;;61.00;;
12038;SDS011;6080;48.818;9.526;2023-02-13T04:48:14;59.63;;;35.43;;
12038;SDS011;6080;48.818;9.526;2023-02-13T04:50:39;39.03;;;22.63;;
12038;SDS011;6080;48.818;9.526;2023-02-13T04:53:05;63.73;;;31.47;;
12038;SDS011;6080;48.818;9.526;2023-02-13T04:55:31;67.17;;;37.97;;
12038;SDS011;6080;48.818;9.526;2023-02-13T04:57:57;36.37;;;25.63;;
12038;SDS011;6080;48.818;9.526;2023-02-13T05:00:24;53.13;;;23.23;;
12038;SDS011;6080;48.818;9.526;2023-02-13T05:02:51;49.87;;;22.03;;
12038;SDS011;6080;48.818;9.526;2023-02-13T05:05:18;52.17;;;21.73;;
12038;SDS011;6080;48.818;9.526;2023-02-13T05:07:44;43.60;;;21.07;;
12038;SDS011;6080;48.818;9.526;2023-02-13T05:10:10;37.07;;;22.37;;
12038;SDS011;6080;48.818;9.526;2023-02-13T05:12:36;71.60;;;23.00;;
12038;SDS011;6080;48.818;9.526;2023-02-13T05:15:03;43.40;;;21.27;;
12038;SDS011;6080;48.818;9.526;2023-02-13T05:17:29;39.33;;;20.93;;
12038;SDS011;6080;48.818;9.526;2023-02-13T05:19:55;45.37;;;22.20;;
12038;SDS011;6080;48.818;9.526;2023-02-13T05:22:21;43.63;;;22.07;;
12038;SDS011;6080;48.818;9.526;2023-02-13T05:25:05;35.07;;;23.23;;
12038;SDS011;6080;48.818;9.526;2023-02-13T05:27:31;48.93;;;21.90;;
12038;SDS011;6080;48.818;9.526;2023-02-13T05:29:57;56.23;;;20.40;;
12038;SDS011;6080;48.818;9.526;2023-02-13T05:32:22;46.77;;;24.27;;
12038;SDS011;6080;48.818;9.526;2023-02-13T05:34:48;69.87;;;23.20;;
12038;SDS011;6080;48.818;9.526;2023-02-13T05:37:15;64.60;;;23.23;;
12038;SDS011;6080;48.818;9.526;2023-02-13T05:39:41;74.10;;;21.90;;
12038;SDS011;6080;48.818;9.526;2023-02-13T05:42:06;56.57;;;25.20;;
12038;SDS011;6080;48.818;9.526;2023-02-13T05:44:33;49.77;;;21.93;;
12038;SDS011;6080;48.818;9.526;2023-02-13T05:46:59;32.30;;;20.90;;
12038;SDS011;6080;48.818;9.526;2023-02-13T05:49:24;40.77;;;21.80;;
12038;SDS011;6080;48.818;9.526;2023-02-13T05:51:50;40.67;;;21.73;;
12038;SDS011;6080;48.818;9.526;2023-02-13T05:54:16;37.93;;;21.20;;
12038;SDS011;6080;48.818;9.526;2023-02-13T05:56:42;44.20;;;20.30;;
12038;SDS011;6080;48.818;9.526;2023-02-13T05:59:08;54.53;;;21.57;;
12038;SDS011;6080;48.818;9.526;2023-02-13T06:01:34;30.83;;;18.93;;
12038;SDS011;6080;48.818;9.526;2023-02-13T06:04:00;31.83;;;19.53;;
12038;SDS011;6080;48.818;9.526;2023-02-13T06:06:25;31.67;;;20.37;;
12038;SDS011;6080;48.818;9.526;2023-02-13T06:08:51;44.80;;;20.90;;
12038;SDS011;6080;48.818;9.526;2023-02-13T06:11:17;45.33;;;40.70;;
12038;SDS011;6080;48.818;9.526;2023-02-13T06:13:43;59.03;;;53.20;;
12038;SDS011;6080;48.818;9.526;2023-02-13T06:16:09;63.67;;;51.43;;
12038;SDS011;6080;48.818;9.526;2023-02-13T06:18:36;98.80;;;90.70;;
12038;SDS011;6080;48.818;9.526;2023-02-13T06:21:03;57.23;;;43.77;;
12038;SDS011;6080;48.818;9.526;2023-02-13T06:23:29;64.33;;;55.50;;
12038;SDS011;6080;48.818;9.526;2023-02-13T06:25:55;99.93;;;76.30;;
12038;SDS011;6080;48.818;9.526;2023-02-13T06:28:25;138.60;;;111.60;;
12038;SDS011;6080;48.818;9.526;2023-02-13T06:30:51;77.43;;;48.17;;
12038;SDS011;6080;48.818;9.526;2023-02-13T06:33:17;93.00;;;29.50;;
12038;SDS011;6080;48.818;9.526;2023-02-13T06:35:42;39.90;;;30.33;;
12038;SDS011;6080;48.818;9.526;2023-02-13T06:38:08;44.40;;;24.07;;
12038;SDS011;6080;48.818;9.526;2023-02-13T06:40:34;45.07;;;23.20;;
12038;SDS011;6080;48.818;9.526;2023-02-13T06:43:00;43.40;;;30.70;;
12038;SDS011;6080;48.818;9.526;2023-02-13T06:45:25;48.87;;;24.33;;
12038;SDS011;6080;48.818;9.526;2023-02-13T06:47:51;49.83;;;26.43;;
12038;SDS011;6080;48.818;9.526;2023-02-13T06:50:17;40.80;;;27.47;;
12038;SDS011;6080;48.818;9.526;2023-02-13T06:52:46;46.97;;;26.30;;
12038;SDS011;6080;48.818;9.526;2023-02-13T06:55:14;52.27;;;27.13;;
12038;SDS011;6080;48.818;9.526;2023-02-13T06:57:41;58.00;;;28.07;;
12038;SDS011;6080;48.818;9.526;2023-02-13T07:00:08;51.53;;;30.17;;
12038;SDS011;6080;48.818;9.526;2023-02-13T07:02:37;49.23;;;29.13;;
12038;SDS011;6080;48.818;9.526;2023-02-13T07:05:07;76.07;;;29.60;;
12038;SDS011;6080;48.818;9.526;2023-02-13T07:07:34;69.17;;;37.57;;
12038;SDS011;6080;48.818;9.526;2023-02-13T07:10:02;74.03;;;29.97;;
12038;SDS011;6080;48.818;9.526;2023-02-13T07:12:28;63.60;;;32.67;;
12038;SDS011;6080;48.818;9.526;2023-02-13T07:14:56;64.47;;;29.20;;
12038;SDS011;6080;48.818;9.526;2023-02-13T07:17:22;78.30;;;32.97;;
12038;SDS011;6080;48.818;9.526;2023-02-13T07:19:48;64.60;;;36.93;;
12038;SDS011;6080;48.818;9.526;2023-02-13T07:22:13;65.60;;;30.57;;
12038;SDS011;6080;48.818;9.526;2023-02-13T07:24:39;74.37;;;29.47;;
12038;SDS011;6080;48.818;9.526;2023-02-13T07:27:05;57.03;;;31.37;;
12038;SDS011;6080;48.818;9.526;2023-02-13T07:29:31;51.20;;;25.90;;
12038;SDS011;6080;48.818;9.526;2023-02-13T07:31:57;62.73;;;25.43;;
12038;SDS011;6080;48.818;9.526;2023-02-13T07:34:23;54.87;;;25.70;;
12038;SDS011;6080;48.818;9.526;2023-02-13T07:36:49;66.93;;;25.53;;
12038;SDS011;6080;48.818;9.526;2023-02-13T07:39:14;45.17;;;25.43;;
12038;SDS011;6080;48.818;9.526;2023-02-13T07:41:40;53.07;;;26.23;;
12038;SDS011;6080;48.818;9.526;2023-02-13T07:44:06;61.60;;;24.37;;
12038;SDS011;6080;48.818;9.526;2023-02-13T07:46:32;60.70;;;29.50;;
12038;SDS011;6080;48.818;9.526;2023-02-13T07:48:57;49.97;;;40.50;;
12038;SDS011;6080;48.818;9.526;2023-02-13T07:51:23;44.93;;;30.30;;
12038;SDS011;6080;48.818;9.526;2023-02-13T07:53:52;50.70;;;29.43;;
12038;SDS011;6080;48.818;9.526;2023-02-13T07:56:18;45.03;;;28.20;;
12038;SDS011;6080;48.818;9.526;2023-02-13T07:58:43;51.70;;;27.93;;
12038;SDS011;6080;48.818;9.526;2023-02-13T08:01:11;48.97;;;27.13;;
12038;SDS011;6080;48.818;9.526;2023-02-13T08:03:37;45.70;;;26.47;;
12038;SDS011;6080;48.818;9.526;2023-02-13T08:06:04;43.80;;;24.67;;
12038;SDS011;6080;48.818;9.526;2023-02-13T08:08:31;46.67;;;41.90;;
12038;SDS011;6080;48.818;9.526;2023-02-13T08:11:01;37.13;;;25.73;;
12038;SDS011;6080;48.818;9.526;2023-02-13T08:13:48;39.87;;;35.77;;
12038;SDS011;6080;48.818;9.526;2023-02-13T08:16:14;37.80;;;33.93;;
12038;SDS011;6080;48.818;9.526;2023-02-13T08:18:40;26.03;;;20.40;;
12038;SDS011;6080;48.818;9.526;2023-02-13T08:21:05;21.07;;;18.17;;
12038;SDS011;6080;48.818;9.526;2023-02-13T08:23:31;25.73;;;19.60;;
12038;SDS011;6080;48.818;9.526;2023-02-13T08:26:00;24.33;;;18.40;;
12038;SDS011;6080;48.818;9.526;2023-02-13T08:28:30;22.90;;;18.03;;
12038;SDS011;6080;48.818;9.526;2023-02-13T08:30:56;20.67;;;17.83;;
12038;SDS011;6080;48.818;9.526;2023-02-13T08:33:21;22.60;;;16.17;;
12038;SDS011;6080;48.818;9.526;2023-02-13T08:35:47;22.07;;;15.83;;
12038;SDS011;6080;48.818;9.526;2023-02-13T08:38:13;24.67;;;16.47;;
12038;SDS011;6080;48.818;9.526;2023-02-13T08:40:39;21.27;;;15.67;;
12038;SDS011;6080;48.818;9.526;2023-02-13T08:43:05;21.60;;;16.33;;
12038;SDS011;6080;48.818;9.526;2023-02-13T08:45:31;21.07;;;16.60;;
12038;SDS011;6080;48.818;9.526;2023-02-13T08:47:58;19.77;;;16.87;;
12038;SDS011;6080;48.818;9.526;2023-02-13T08:50:24;24.57;;;17.83;;
12038;SDS011;6080;48.818;9.526;2023-02-13T08:52:51;23.87;;;16.93;;
12038;SDS011;6080;48.818;9.526;2023-02-13T08:55:18;22.00;;;17.83;;
12038;SDS011;6080;48.818;9.526;2023-02-13T08:57:44;22.57;;;17.33;;
12038;SDS011;6080;48.818;9.526;2023-02-13T09:00:10;23.20;;;17.57;;
12038;SDS011;6080;48.818;9.526;2023-02-13T09:02:36;20.73;;;16.80;;
12038;SDS011;6080;48.818;9.526;2023-02-13T09:05:02;21.10;;;16.13;;
12038;SDS011;6080;48.818;9.526;2023-02-13T09:07:28;21.60;;;15.83;;
12038;SDS011;6080;48.818;9.526;2023-02-13T09:09:54;25.33;;;16.60;;
12038;SDS011;6080;48.818;9.526;2023-02-13T09:12:20;21.97;;;15.83;;
12038;SDS011;6080;48.818;9.526;2023-02-13T09:14:46;20.73;;;16.00;;
12038;SDS011;6080;48.818;9.526;2023-02-13T09:17:12;21.50;;;17.17;;
12038;SDS011;6080;48.818;9.526;2023-02-13T09:19:42;25.70;;;18.00;;
12038;SDS011;6080;48.818;9.526;2023-02-13T09:22:08;20.67;;;17.53;;
12038;SDS011;6080;48.818;9.526;2023-02-13T09:24:34;23.87;;;20.93;;
12038;SDS011;6080;48.818;9.526;2023-02-13T09:26:59;20.00;;;17.73;;
12038;SDS011;6080;48.818;9.526;2023-02-13T09:29:25;25.10;;;21.43;;
12038;SDS011;6080;48.818;9.526;2023-02-13T09:31:55;22.83;;;20.33;;
12038;SDS011;6080;48.818;9.526;2023-02-13T09:34:21;20.33;;;18.33;;
12038;SDS011;6080;48.818;9.526;2023-02-13T09:36:50;19.33;;;17.03;;
12038;SDS011;6080;48.818;9.526;2023-02-13T09:39:19;20.13;;;18.13;;
12038;SDS011;6080;48.818;9.526;2023-02-13T09:41:46;19.73;;;17.83;;
12038;SDS011;6080;48.818;9.526;2023-02-13T09:44:15;21.40;;;17.03;;
12038;SDS011;6080;48.818;9.526;2023-02-13T09:47:12;17.47;;;15.30;;
12038;SDS011;6080;48.818;9.526;2023-02-13T09:49:59;12.50;;;10.90;;
12038;SDS011;6080;48.818;9.526;2023-02-13T09:52:31;14.53;;;13.00;;
12038;SDS011;6080;48.818;9.526;2023-02-13T09:54:59;13.50;;;12.33;;
12038;SDS011;6080;48.818;9.526;2023-02-13T09:57:35;14.90;;;13.40;;
12038;SDS011;6080;48.818;9.526;2023-02-13T10:14:07;14.70;;;13.43;;
12038;SDS011;6080;48.818;9.526;2023-02-13T10:16:54;12.77;;;11.67;;
12038;SDS011;6080;48.818;9.526;2023-02-13T10:19:59;14.27;;;13.07;;
12038;SDS011;6080;48.818;9.526;2023-02-13T10:22:37;16.10;;;14.73;;
12038;SDS011;6080;48.818;9.526;2023-02-13T10:25:27;19.53;;;17.83;;
12038;SDS011;6080;48.818;9.526;2023-02-13T10:28:12;18.63;;;17.13;;
12038;SDS011;6080;48.818;9.526;2023-02-13T10:30:51;19.33;;;17.83;;
12038;SDS011;6080;48.818;9.526;2023-02-13T10:33:24;16.40;;;15.20;;
12038;SDS011;6080;48.818;9.526;2023-02-13T10:38:27;10.73;;;9.73;;
12038;SDS011;6080;48.818;9.526;2023-02-13T10:41:14;11.17;;;10.17;;
12038;SDS011;6080;48.818;9.526;2023-02-13T10:49:05;10.90;;;9.90;;
12038;SDS011;6080;48.818;9.526;2023-02-13T11:03:04;15.03;;;13.93;;
12038;SDS011;6080;48.818;9.526;2023-02-13T11:05:39;15.70;;;14.53;;
12038;SDS011;6080;48.818;9.526;2023-02-13T11:08:17;17.23;;;16.00;;
12038;SDS011;6080;48.818;9.526;2023-02-13T11:10:47;16.43;;;15.33;;
12038;SDS011;6080;48.818;9.526;2023-02-13T11:13:14;17.97;;;16.63;;
12038;SDS011;6080;48.818;9.526;2023-02-13T11:15:53;17.70;;;16.40;;
12038;SDS011;6080;48.818;9.526;2023-02-13T11:18:24;17.57;;;16.27;;
12038;SDS011;6080;48.818;9.526;2023-02-13T11:20:59;17.17;;;15.90;;
12038;SDS011;6080;48.818;9.526;2023-02-13T11:23:44;19.30;;;18.00;;
12038;SDS011;6080;48.818;9.526;2023-02-13T11:31:27;15.90;;;14.90;;
12038;SDS011;6080;48.818;9.526;2023-02-13T11:33:54;19.10;;;17.83;;
12038;SDS011;6080;48.818;9.526;2023-02-13T11:36:30;18.70;;;17.50;;
12038;SDS011;6080;48.818;9.526;2023-02-13T11:38:59;17.80;;;16.63;;
12038;SDS011;6080;48.818;9.526;2023-02-13T11:41:29;19.80;;;18.47;;
12038;SDS011;6080;48.818;9.526;2023-02-13T11:44:01;18.23;;;17.03;;
12038;SDS011;6080;48.818;9.526;2023-02-13T11:46:29;16.60;;;15.50;;
12038;SDS011;6080;48.818;9.526;2023-02-13T11:49:14;16.17;;;15.07;;
12038;SDS011;6080;48.818;9.526;2023-02-13T11:51:58;21.03;;;19.33;;
12038;SDS011;6080;48.818;9.526;2023-02-13T11:56:52;21.00;;;19.60;;
12038;SDS011;6080;48.818;9.526;2023-02-13T11:59:24;21.27;;;19.87;;
12038;SDS011;6080;48.818;9.526;2023-02-13T12:02:51;22.10;;;20.40;;
12038;SDS011;6080;48.818;9.526;2023-02-13T12:04:52;20.37;;;19.03;;
12038;SDS011;6080;48.818;9.526;2023-02-13T12:07:39;20.63;;;19.23;;
12038;SDS011;6080;48.818;9.526;2023-02-13T12:10:17;24.90;;;23.20;;
12038;SDS011;6080;48.818;9.526;2023-02-13T12:15:20;21.97;;;20.37;;
12038;SDS011;6080;48.818;9.526;2023-02-13T12:18:04;22.83;;;21.13;;
12038;SDS011;6080;48.818;9.526;2023-02-13T12:20:43;20.60;;;19.20;;
12038;SDS011;6080;48.818;9.526;2023-02-13T12:23:33;21.40;;;19.87;;
12038;SDS011;6080;48.818;9.526;2023-02-13T12:39:53;21.17;;;19.77;;
12038;SDS011;6080;48.818;9.526;2023-02-13T12:42:49;20.37;;;19.03;;
12038;SDS011;6080;48.818;9.526;2023-02-13T12:48:03;24.03;;;22.33;;
12038;SDS011;6080;48.818;9.526;2023-02-13T12:53:49;19.50;;;18.20;;
12038;SDS011;6080;48.818;9.526;2023-02-13T13:05:18;15.23;;;14.13;;
12038;SDS011;6080;48.818;9.526;2023-02-13T13:13:16;21.70;;;20.27;;
12038;SDS011;6080;48.818;9.526;2023-02-13T13:23:52;19.20;;;18.00;;
12038;SDS011;6080;48.818;9.526;2023-02-13T13:28:57;14.80;;;13.60;;
12038;SDS011;6080;48.818;9.526;2023-02-13T13:31:25;17.23;;;16.03;;
12038;SDS011;6080;48.818;9.526;2023-02-13T13:33:53;18.57;;;17.23;;
12038;SDS011;6080;48.818;9.526;2023-02-13T13:36:37;17.77;;;16.57;;
12038;SDS011;6080;48.818;9.526;2023-02-13T13:44:53;11.00;;;9.97;;
12038;SDS011;6080;48.818;9.526;2023-02-13T13:47:24;9.97;;;9.03;;
12038;SDS011;6080;48.818;9.526;2023-02-13T13:50:33;10.83;;;9.93;;
12038;SDS011;6080;48.818;9.526;2023-02-13T13:53:04;13.27;;;12.27;;
12038;SDS011;6080;48.818;9.526;2023-02-13T14:03:41;18.83;;;17.53;;
12038;SDS011;6080;48.818;9.526;2023-02-13T14:06:09;19.17;;;17.77;;
12038;SDS011;6080;48.818;9.526;2023-02-13T14:13:50;20.97;;;19.67;;
12038;SDS011;6080;48.818;9.526;2023-02-13T14:19:05;14.17;;;13.00;;
12038;SDS011;6080;48.818;9.526;2023-02-13T14:21:47;15.27;;;14.13;;
12038;SDS011;6080;48.818;9.526;2023-02-13T14:24:12;15.87;;;14.77;;
12038;SDS011;6080;48.818;9.526;2023-02-13T14:26:41;12.73;;;11.67;;
12038;SDS011;6080;48.818;9.526;2023-02-13T14:31:36;11.93;;;9.70;;
12038;SDS011;6080;48.818;9.526;2023-02-13T14:36:42;10.03;;;9.00;;
12038;SDS011;6080;48.818;9.526;2023-02-13T14:39:29;13.10;;;11.87;;
12038;SDS011;6080;48.818;9.526;2023-02-13T14:41:59;33.43;;;31.17;;
12038;SDS011;6080;48.818;9.526;2023-02-13T14:46:54;36.33;;;33.80;;
12038;SDS011;6080;48.818;9.526;2023-02-13T14:49:23;11.93;;;10.73;;
12038;SDS011;6080;48.818;9.526;2023-02-13T14:52:03;13.47;;;12.37;;
12038;SDS011;6080;48.818;9.526;2023-02-13T14:59:48;15.10;;;13.70;;
12038;SDS011;6080;48.818;9.526;2023-02-13T15:02:23;13.97;;;12.77;;
12038;SDS011;6080;48.818;9.526;2023-02-13T15:04:58;13.83;;;12.53;;
12038;SDS011;6080;48.818;9.526;2023-02-13T15:07:32;13.17;;;12.07;;
12038;SDS011;6080;48.818;9.526;2023-02-13T15:10:02;12.93;;;11.20;;
12038;SDS011;6080;48.818;9.526;2023-02-13T15:12:32;11.93;;;10.70;;
12038;SDS011;6080;48.818;9.526;2023-02-13T15:15:00;12.10;;;10.63;;
12038;SDS011;6080;48.818;9.526;2023-02-13T15:17:28;14.93;;;13.33;;
12038;SDS011;6080;48.818;9.526;2023-02-13T15:20:23;12.87;;;11.57;;
12038;SDS011;6080;48.818;9.526;2023-02-13T15:22:50;15.60;;;11.67;;
12038;SDS011;6080;48.818;9.526;2023-02-13T15:27:59;17.37;;;13.83;;
12038;SDS011;6080;48.818;9.526;2023-02-13T15:30:30;13.83;;;11.63;;
12038;SDS011;6080;48.818;9.526;2023-02-13T15:32:59;10.80;;;9.67;;
12038;SDS011;6080;48.818;9.526;2023-02-13T15:35:32;15.07;;;13.63;;
12038;SDS011;6080;48.818;9.526;2023-02-13T15:40:59;15.37;;;13.63;;
12038;SDS011;6080;48.818;9.526;2023-02-13T15:43:33;14.43;;;11.70;;
12038;SDS011;6080;48.818;9.526;2023-02-13T15:46:05;15.67;;;14.10;;
12038;SDS011;6080;48.818;9.526;2023-02-13T15:48:45;21.60;;;19.60;;
12038;SDS011;6080;48.818;9.526;2023-02-13T15:51:24;16.17;;;14.77;;
12038;SDS011;6080;48.818;9.526;2023-02-13T15:53:56;19.70;;;17.50;;
12038;SDS011;6080;48.818;9.526;2023-02-13T15:56:23;15.60;;;12.23;;
12038;SDS011;6080;48.818;9.526;2023-02-13T15:58:50;15.70;;;13.47;;
12038;SDS011;6080;48.818;9.526;2023-02-13T16:01:17;15.00;;;11.27;;
12038;SDS011;6080;48.818;9.526;2023-02-13T16:03:48;12.93;;;11.57;;
12038;SDS011;6080;48.818;9.526;2023-02-13T16:06:20;15.00;;;13.57;;
12038;SDS011;6080;48.818;9.526;2023-02-13T16:08:52;14.13;;;12.73;;
12038;SDS011;6080;48.818;9.526;2023-02-13T16:11:37;14.37;;;12.87;;
12038;SDS011;6080;48.818;9.526;2023-02-13T16:16:34;16.83;;;15.03;;
12038;SDS011;6080;48.818;9.526;2023-02-13T16:19:20;16.47;;;14.77;;
12038;SDS011;6080;48.818;9.526;2023-02-13T16:21:47;16.90;;;15.23;;
12038;SDS011;6080;48.818;9.526;2023-02-13T16:24:13;17.33;;;15.53;;
12038;SDS011;6080;48.818;9.526;2023-02-13T16:26:40;15.47;;;13.87;;
12038;SDS011;6080;48.818;9.526;2023-02-13T16:29:12;17.53;;;15.57;;
12038;SDS011;6080;48.818;9.526;2023-02-13T16:31:43;24.10;;;14.17;;
12038;SDS011;6080;48.818;9.526;2023-02-13T16:34:22;24.17;;;15.80;;
12038;SDS011;6080;48.818;9.526;2023-02-13T16:36:53;15.27;;;12.30;;
12038;SDS011;6080;48.818;9.526;2023-02-13T16:39:30;18.00;;;13.30;;
12038;SDS011;6080;48.818;9.526;2023-02-13T16:41:57;16.20;;;13.20;;
12038;SDS011;6080;48.818;9.526;2023-02-13T16:46:54;17.33;;;13.43;;
12038;SDS011;6080;48.818;9.526;2023-02-13T16:49:31;18.07;;;13.53;;
12038;SDS011;6080;48.818;9.526;2023-02-13T16:54:38;18.83;;;14.07;;
12038;SDS011;6080;48.818;9.526;2023-02-13T16:59:42;18.77;;;15.63;;
12038;SDS011;6080;48.818;9.526;2023-02-13T17:07:33;21.57;;;15.30;;
12038;SDS011;6080;48.818;9.526;2023-02-13T17:10:01;17.13;;;15.33;;
12038;SDS011;6080;48.818;9.526;2023-02-13T17:12:28;18.53;;;15.33;;
12038;SDS011;6080;48.818;9.526;2023-02-13T17:15:01;17.57;;;15.60;;
12038;SDS011;6080;48.818;9.526;2023-02-13T17:17:29;20.83;;;15.07;;
12038;SDS011;6080;48.818;9.526;2023-02-13T17:19:57;19.07;;;15.23;;
12038;SDS011;6080;48.818;9.526;2023-02-13T17:22:27;19.23;;;14.97;;
12038;SDS011;6080;48.818;9.526;2023-02-13T17:24:56;23.50;;;21.03;;
12038;SDS011;6080;48.818;9.526;2023-02-13T17:27:22;25.40;;;20.90;;
12038;SDS011;6080;48.818;9.526;2023-02-13T17:29:48;28.70;;;26.00;;
12038;SDS011;6080;48.818;9.526;2023-02-13T17:32:18;21.13;;;18.87;;
12038;SDS011;6080;48.818;9.526;2023-02-13T17:34:48;23.80;;;21.47;;
12038;SDS011;6080;48.818;9.526;2023-02-13T17:37:32;21.00;;;18.00;;
12038;SDS011;6080;48.818;9.526;2023-02-13T17:39:58;20.03;;;17.43;;
12038;SDS011;6080;48.818;9.526;2023-02-13T17:42:25;20.40;;;17.90;;
12038;SDS011;6080;48.818;9.526;2023-02-13T17:44:53;25.97;;;20.00;;
12038;SDS011;6080;48.818;9.526;2023-02-13T17:47:20;22.20;;;18.93;;
12038;SDS011;6080;48.818;9.526;2023-02-13T17:49:47;23.93;;;19.00;;
12038;SDS011;6080;48.818;9.526;2023-02-13T17:52:15;22.33;;;16.87;;
12038;SDS011;6080;48.818;9.526;2023-02-13T17:54:43;23.73;;;17.40;;
12038;SDS011;6080;48.818;9.526;2023-02-13T17:57:10;21.80;;;17.70;;
12038;SDS011;6080;48.818;9.526;2023-02-13T17:59:38;24.80;;;17.43;;
12038;SDS011;6080;48.818;9.526;2023-02-13T18:02:08;23.53;;;20.33;;
12038;SDS011;6080;48.818;9.526;2023-02-13T18:04:39;31.83;;;21.03;;
12038;SDS011;6080;48.818;9.526;2023-02-13T18:07:05;24.60;;;18.33;;
12038;SDS011;6080;48.818;9.526;2023-02-13T18:09:31;29.37;;;19.93;;
12038;SDS011;6080;48.818;9.526;2023-02-13T18:11:57;27.00;;;20.57;;
12038;SDS011;6080;48.818;9.526;2023-02-13T18:14:23;29.03;;;20.60;;
12038;SDS011;6080;48.818;9.526;2023-02-13T18:16:49;24.83;;;17.70;;